Time;durP1;ratioP1;P1;durP2;ratioP2;P2;SDS_P1;SDS_P2;PMS_P1;PMS_P2;Temp;Humidity;BMP_temperature;BMP_pressure;BME280_temperature;BME280_humidity;BME280_pressure;Samples;Min_cycle;Max_cycle;Signal;HPM_P1;HPM_P2
2021/11/21 00:01:56;;;;;;;;;;;15.40;99.90;;;;;;5075097;28;19909;-73
2021/11/21 00:04:23;;;;;;;;;;;15.40;99.90;;;;;;5075426;28;19951;-75
2021/11/21 00:06:50;;;;;;;;;;;15.50;99.90;;;;;;5075087;28;20034;-75
2021/11/21 00:09:17;;;;;;;;;;;15.40;99.90;;;;;;5074908;28;20259;-72
2021/11/21 00:11:43;;;;;;;;;;;15.50;99.90;;;;;;5074816;28;19909;-76
2021/11/21 00:14:10;;;;;;;;;;;15.50;99.90;;;;;;5074559;28;20007;-75
2021/11/21 00:16:37;;;;;;;;;;;15.50;99.90;;;;;;5074571;28;19938;-71
2021/11/21 00:19:04;;;;;;;;;;;15.50;99.90;;;;;;5075002;28;19915;-72
2021/11/21 00:21:31;;;;;;;;;;;15.50;99.90;;;;;;5074844;28;19958;-74
2021/11/21 00:23:58;;;;;;;;;;;15.50;99.90;;;;;;5074833;28;20003;-75
2021/11/21 00:26:25;;;;;;;;;;;15.60;99.90;;;;;;5074992;28;19915;-70
2021/11/21 00:28:52;;;;;;;;;;;15.60;99.90;;;;;;5074743;28;19920;-72
2021/11/21 00:31:19;;;;;;;;;;;15.50;99.90;;;;;;5074094;28;19916;-71
2021/11/21 00:33:46;;;;;;;;;;;15.50;99.90;;;;;;5074666;28;20003;-75
2021/11/21 00:36:12;;;;;;;;;;;15.50;99.90;;;;;;5090196;28;20347;-72
2021/11/21 00:38:40;;;;;;;;;;;15.50;99.90;;;;;;5074559;28;19908;-77
2021/11/21 00:41:07;;;;;;;;;;;15.50;99.90;;;;;;5074322;28;19954;-78
2021/11/21 00:43:34;;;;;;;;;;;15.50;99.90;;;;;;5074454;28;19953;-72
2021/11/21 00:46:01;;;;;;;;;;;15.60;99.90;;;;;;5073721;28;19908;-77
2021/11/21 00:48:28;;;;;;;;;;;15.50;99.90;;;;;;5074216;28;19954;-77
2021/11/21 00:50:58;;;;;;;;;;;15.60;99.90;;;;;;5073493;28;19912;-76
2021/11/21 00:53:25;;;;;;;;;;;15.60;99.90;;;;;;5074142;28;19960;-77
2021/11/21 00:56:01;;;;;;;;;;;15.50;99.90;;;;;;5073821;28;20278;-74
2021/11/21 00:58:28;;;;;;;;;;;15.60;99.90;;;;;;5074228;28;19915;-74
2021/11/21 01:00:55;;;;;;;;;;;15.50;99.90;;;;;;5073673;28;20455;-76
2021/11/21 01:03:23;;;;;;;;;;;15.50;99.90;;;;;;5074121;28;19912;-74
2021/11/21 01:05:50;;;;;;;;;;;15.60;99.90;;;;;;5073821;28;20003;-75
2021/11/21 01:08:18;;;;;;;;;;;15.60;99.90;;;;;;5074144;28;19916;-72
2021/11/21 01:10:47;;;;;;;;;;;15.50;99.90;;;;;;5073928;28;19915;-77
2021/11/21 01:13:14;;;;;;;;;;;15.50;99.90;;;;;;5073836;28;19916;-73
2021/11/21 01:15:44;;;;;;;;;;;15.40;99.90;;;;;;5072571;28;20467;-77
2021/11/21 01:18:20;;;;;;;;;;;15.50;99.90;;;;;;5073898;28;19908;-73
2021/11/21 01:20:48;;;;;;;;;;;15.50;99.90;;;;;;5073736;28;20058;-73
2021/11/21 01:23:15;;;;;;;;;;;15.50;99.90;;;;;;5073594;28;19909;-72
2021/11/21 01:25:43;;;;;;;;;;;15.40;99.90;;;;;;5073712;28;19916;-75
2021/11/21 01:28:10;;;;;;;;;;;15.30;99.90;;;;;;5073791;28;19913;-78
2021/11/21 01:30:37;;;;;;;;;;;15.20;99.90;;;;;;5074901;28;19913;-67
2021/11/21 01:33:04;;;;;;;;;;;15.20;99.90;;;;;;5073492;28;19964;-72
2021/11/21 01:35:31;;;;;;;;;;;15.10;99.90;;;;;;5073663;28;19912;-67
2021/11/21 01:37:58;;;;;;;;;;;15.10;99.90;;;;;;5073528;28;19908;-67
2021/11/21 01:40:25;;;;;;;;;;;15.10;99.90;;;;;;5073374;28;19909;-68
2021/11/21 01:42:53;;;;;;;;;;;15.10;99.90;;;;;;5073344;28;19912;-70
2021/11/21 01:45:19;;;;;;;;;;;15.00;99.90;;;;;;5073605;28;19908;-69
2021/11/21 01:47:47;;;;;;;;;;;15.10;99.90;;;;;;5073201;28;19926;-68
2021/11/21 01:50:19;;;;;;;;;;;15.10;99.90;;;;;;5073358;28;20651;-69
2021/11/21 01:52:46;;;;;;;;;;;15.20;99.90;;;;;;5073144;28;19912;-66
2021/11/21 01:55:13;;;;;;;;;;;15.10;99.90;;;;;;5073145;28;19913;-78
2021/11/21 01:57:40;;;;;;;;;;;15.10;99.90;;;;;;5073404;28;19919;-66
2021/11/21 02:00:09;;;;;;;;;;;15.10;99.90;;;;;;5072875;28;20630;-69
2021/11/21 02:02:36;;;;;;;;;;;15.20;99.90;;;;;;5071398;28;19912;-67
2021/11/21 02:05:03;;;;;;;;;;;15.20;99.90;;;;;;5073055;28;19948;-66
2021/11/21 02:07:30;;;;;;;;;;;15.20;99.90;;;;;;5072902;28;19983;-67
2021/11/21 02:09:57;;;;;;;;;;;15.30;99.90;;;;;;5072459;28;20015;-70
2021/11/21 02:12:24;;;;;;;;;;;15.30;99.90;;;;;;5072889;28;19923;-67
2021/11/21 02:14:51;;;;;;;;;;;15.20;99.90;;;;;;5072697;28;19915;-71
2021/11/21 02:17:18;;;;;;;;;;;15.10;99.90;;;;;;5072889;28;19908;-71
2021/11/21 02:19:45;;;;;;;;;;;15.20;99.90;;;;;;5072999;28;19912;-67
2021/11/21 02:22:11;;;;;;;;;;;15.20;99.90;;;;;;5072828;28;19942;-67
2021/11/21 02:24:38;;;;;;;;;;;15.20;99.90;;;;;;5072679;28;19912;-70
2021/11/21 02:27:05;;;;;;;;;;;15.10;99.90;;;;;;5071349;28;20363;-71
2021/11/21 02:29:32;;;;;;;;;;;15.20;99.90;;;;;;5072532;28;19922;-67
2021/11/21 02:31:58;;;;;;;;;;;15.20;99.90;;;;;;5072385;28;19909;-69
2021/11/21 02:34:25;;;;;;;;;;;15.20;99.90;;;;;;5072552;28;19912;-69
2021/11/21 02:36:52;;;;;;;;;;;15.20;99.90;;;;;;5072888;28;19912;-69
2021/11/21 02:39:19;;;;;;;;;;;15.20;99.90;;;;;;5072729;28;19909;-72
2021/11/21 02:41:46;;;;;;;;;;;15.20;99.90;;;;;;5072480;28;19913;-75
2021/11/21 02:44:13;;;;;;;;;;;15.30;99.90;;;;;;5072402;28;19939;-68
2021/11/21 02:46:39;;;;;;;;;;;15.20;99.90;;;;;;5072687;28;19915;-71
2021/11/21 02:49:06;;;;;;;;;;;15.20;99.90;;;;;;5072382;28;19915;-75
2021/11/21 02:51:33;;;;;;;;;;;15.20;99.90;;;;;;5072391;28;20078;-70
2021/11/21 02:54:00;;;;;;;;;;;15.30;99.90;;;;;;5072010;28;19924;-77
2021/11/21 02:56:27;;;;;;;;;;;15.30;99.90;;;;;;5072472;28;20370;-77
2021/11/21 02:58:54;;;;;;;;;;;15.40;99.90;;;;;;5072434;28;19908;-76
2021/11/21 03:01:23;;;;;;;;;;;15.30;99.90;;;;;;5072251;28;19927;-72
2021/11/21 03:03:50;;;;;;;;;;;15.30;99.90;;;;;;5072226;28;19913;-76
2021/11/21 03:06:16;;;;;;;;;;;15.30;99.90;;;;;;5072100;28;19915;-75
2021/11/21 03:08:43;;;;;;;;;;;15.30;99.90;;;;;;5072241;28;20008;-78
2021/11/21 03:11:16;;;;;;;;;;;15.30;99.90;;;;;;5071998;28;19952;-76
2021/11/21 03:13:43;;;;;;;;;;;15.30;99.90;;;;;;5071934;28;19921;-77
2021/11/21 03:16:10;;;;;;;;;;;15.30;99.90;;;;;;5075199;28;19908;-76
2021/11/21 03:18:37;;;;;;;;;;;15.40;99.90;;;;;;5076288;28;19908;-78
2021/11/21 03:21:03;;;;;;;;;;;15.40;99.90;;;;;;5076126;28;19908;-73
2021/11/21 03:23:30;;;;;;;;;;;15.40;99.90;;;;;;5076225;28;19954;-78
2021/11/21 03:25:57;;;;;;;;;;;15.40;99.90;;;;;;5076000;28;19912;-75
2021/11/21 03:28:23;;;;;;;;;;;15.40;99.90;;;;;;5076081;28;19909;-73
2021/11/21 03:30:50;;;;;;;;;;;15.40;99.90;;;;;;5076033;28;20410;-77
2021/11/21 03:33:17;;;;;;;;;;;15.40;99.90;;;;;;5075818;28;20291;-79
2021/11/21 03:35:44;;;;;;;;;;;15.40;99.90;;;;;;5075954;28;19909;-76
2021/11/21 03:38:10;;;;;;;;;;;15.30;99.90;;;;;;5075911;28;19909;-78
2021/11/21 03:40:37;;;;;;;;;;;15.40;99.90;;;;;;5075626;28;19908;-79
2021/11/21 03:43:04;;;;;;;;;;;15.40;99.90;;;;;;5076035;28;19908;-78
2021/11/21 03:45:32;;;;;;;;;;;15.50;99.90;;;;;;5076143;28;19913;-78
2021/11/21 03:47:59;;;;;;;;;;;15.50;99.90;;;;;;5075631;28;19915;-78
2021/11/21 03:50:26;;;;;;;;;;;15.50;99.90;;;;;;5075498;28;19908;-77
2021/11/21 03:52:53;;;;;;;;;;;15.50;99.90;;;;;;5075179;28;19924;-78
2021/11/21 03:55:20;;;;;;;;;;;15.60;99.90;;;;;;5075306;28;19973;-75
2021/11/21 03:57:47;;;;;;;;;;;15.60;99.90;;;;;;5075191;28;20358;-73
2021/11/21 04:00:16;;;;;;;;;;;15.60;99.90;;;;;;5075022;28;19973;-73
2021/11/21 04:02:43;;;;;;;;;;;15.70;99.90;;;;;;5075057;28;19912;-72
2021/11/21 04:05:10;;;;;;;;;;;15.70;99.90;;;;;;5074057;28;19909;-78
2021/11/21 04:07:37;;;;;;;;;;;15.80;99.90;;;;;;5075253;28;19916;-75
2021/11/21 04:10:04;;;;;;;;;;;15.80;99.90;;;;;;5074720;28;20256;-78
2021/11/21 04:12:31;;;;;;;;;;;15.80;99.90;;;;;;5075220;28;19928;-79
2021/11/21 04:14:58;;;;;;;;;;;15.70;99.90;;;;;;5075372;28;19909;-73
2021/11/21 04:17:27;;;;;;;;;;;15.70;99.90;;;;;;5075285;28;19908;-81
2021/11/21 04:19:54;;;;;;;;;;;15.70;99.90;;;;;;5075036;28;19908;-78
2021/11/21 04:22:21;;;;;;;;;;;15.70;99.90;;;;;;5075595;28;19909;-75
2021/11/21 04:24:48;;;;;;;;;;;15.70;99.90;;;;;;5074841;28;19912;-74
2021/11/21 04:27:14;;;;;;;;;;;15.70;99.90;;;;;;5074799;28;19909;-72
2021/11/21 04:29:41;;;;;;;;;;;15.70;99.90;;;;;;5075093;28;19916;-76
2021/11/21 04:32:08;;;;;;;;;;;15.80;99.90;;;;;;5074605;28;19908;-75
2021/11/21 04:34:34;;;;;;;;;;;15.80;99.90;;;;;;5074728;28;20009;-74
2021/11/21 04:37:01;;;;;;;;;;;15.80;99.90;;;;;;5074731;28;20276;-78
2021/11/21 04:39:28;;;;;;;;;;;15.80;99.90;;;;;;5074644;28;19912;-77
2021/11/21 04:41:55;;;;;;;;;;;15.80;99.90;;;;;;5074540;28;19915;-76
2021/11/21 04:44:23;;;;;;;;;;;15.70;99.90;;;;;;5074520;28;19916;-75
2021/11/21 04:46:49;;;;;;;;;;;15.80;99.90;;;;;;5074534;28;20256;-76
2021/11/21 04:49:16;;;;;;;;;;;15.70;99.90;;;;;;5074537;28;19912;-68
2021/11/21 04:51:43;;;;;;;;;;;15.70;99.90;;;;;;5074504;28;19916;-67
2021/11/21 04:54:14;;;;;;;;;;;15.70;99.90;;;;;;5074149;28;19982;-69
2021/11/21 04:56:42;;;;;;;;;;;15.70;99.90;;;;;;5074482;28;20461;-70
2021/11/21 04:59:09;;;;;;;;;;;15.60;99.90;;;;;;5074202;28;20415;-76
2021/11/21 05:01:35;;;;;;;;;;;15.50;99.90;;;;;;5070557;28;19916;-72
2021/11/21 05:04:02;;;;;;;;;;;15.40;99.90;;;;;;5072643;28;19908;-77
2021/11/21 05:06:29;;;;;;;;;;;15.40;99.90;;;;;;5073275;28;19922;-75
2021/11/21 05:08:55;;;;;;;;;;;15.50;99.90;;;;;;5072965;28;19908;-78
2021/11/21 05:11:22;;;;;;;;;;;15.40;99.90;;;;;;5073081;28;19955;-78
2021/11/21 05:13:49;;;;;;;;;;;15.50;99.90;;;;;;5073073;28;19922;-74
2021/11/21 05:16:15;;;;;;;;;;;15.40;99.90;;;;;;5071766;28;19909;-77
2021/11/21 05:18:42;;;;;;;;;;;15.40;99.90;;;;;;5072944;28;19928;-74
2021/11/21 05:21:09;;;;;;;;;;;15.50;99.90;;;;;;5073046;28;19908;-76
2021/11/21 05:23:35;;;;;;;;;;;15.50;99.90;;;;;;5072855;28;19915;-76
2021/11/21 05:26:02;;;;;;;;;;;15.60;99.90;;;;;;5072748;28;19920;-76
2021/11/21 05:28:29;;;;;;;;;;;15.60;99.90;;;;;;5071672;28;19913;-71
2021/11/21 05:30:55;;;;;;;;;;;15.50;99.90;;;;;;5072841;28;20343;-78
2021/11/21 05:33:22;;;;;;;;;;;15.50;99.90;;;;;;5072950;28;19920;-77
2021/11/21 05:35:49;;;;;;;;;;;15.50;99.90;;;;;;5072772;28;19908;-73
2021/11/21 05:38:15;;;;;;;;;;;15.40;99.90;;;;;;5071882;28;19913;-77
2021/11/21 05:40:42;;;;;;;;;;;15.30;99.90;;;;;;5072408;28;19912;-74
2021/11/21 05:43:09;;;;;;;;;;;15.30;99.90;;;;;;5072538;28;19912;-71
2021/11/21 05:45:36;;;;;;;;;;;15.30;99.90;;;;;;5072499;28;19922;-71
2021/11/21 05:48:02;;;;;;;;;;;15.10;99.90;;;;;;5072408;28;19912;-75
2021/11/21 05:50:29;;;;;;;;;;;15.20;99.90;;;;;;5071301;28;19919;-75
2021/11/21 05:52:56;;;;;;;;;;;15.20;99.90;;;;;;5072437;28;19924;-74
2021/11/21 05:55:23;;;;;;;;;;;15.20;99.90;;;;;;5072395;28;19933;-73
2021/11/21 05:57:50;;;;;;;;;;;15.20;99.90;;;;;;5071979;28;20011;-76
2021/11/21 06:00:19;;;;;;;;;;;15.30;99.90;;;;;;4957752;28;3253610;-77
2021/11/21 06:02:45;;;;;;;;;;;15.30;99.90;;;;;;5073072;28;20258;-74
2021/11/21 06:05:12;;;;;;;;;;;15.40;99.90;;;;;;5073153;28;20022;-73
2021/11/21 06:07:39;;;;;;;;;;;15.50;99.90;;;;;;5072986;28;19958;-72
2021/11/21 06:10:07;;;;;;;;;;;15.50;99.90;;;;;;5072454;28;19912;-68
2021/11/21 06:12:33;;;;;;;;;;;15.60;99.90;;;;;;5072702;28;19923;-74
2021/11/21 06:15:00;;;;;;;;;;;15.50;99.90;;;;;;5073050;28;19975;-73
2021/11/21 06:17:27;;;;;;;;;;;15.60;99.90;;;;;;5072977;28;19997;-72
2021/11/21 06:19:55;;;;;;;;;;;15.60;99.90;;;;;;5072702;28;19908;-75
2021/11/21 06:22:22;;;;;;;;;;;15.60;99.90;;;;;;5072658;28;19915;-73
2021/11/21 06:24:49;;;;;;;;;;;15.70;99.90;;;;;;5072607;28;19909;-75
2021/11/21 06:27:16;;;;;;;;;;;15.80;99.90;;;;;;5088157;28;19909;-74
2021/11/21 06:29:43;;;;;;;;;;;15.80;99.90;;;;;;5072458;28;20367;-73
2021/11/21 06:32:10;;;;;;;;;;;15.90;99.90;;;;;;5072436;28;20329;-70
2021/11/21 06:34:36;;;;;;;;;;;15.90;99.90;;;;;;5072551;28;19913;-70
2021/11/21 06:37:04;;;;;;;;;;;15.90;99.90;;;;;;5072806;28;19913;-67
2021/11/21 06:39:33;;;;;;;;;;;15.90;99.90;;;;;;5071438;28;20333;-68
2021/11/21 06:42:00;;;;;;;;;;;15.80;99.90;;;;;;5072357;28;19940;-75
2021/11/21 06:44:27;;;;;;;;;;;15.80;99.90;;;;;;5072519;28;19908;-77
2021/11/21 06:46:53;;;;;;;;;;;15.90;99.90;;;;;;5072484;28;19908;-77
2021/11/21 06:49:20;;;;;;;;;;;15.90;99.90;;;;;;5071496;28;19960;-74
2021/11/21 06:51:47;;;;;;;;;;;15.90;99.90;;;;;;5072201;28;19995;-72
2021/11/21 06:54:14;;;;;;;;;;;15.80;99.90;;;;;;5072171;28;19916;-77
2021/11/21 06:56:41;;;;;;;;;;;15.60;99.90;;;;;;5087916;28;19916;-76
2021/11/21 06:59:07;;;;;;;;;;;15.50;99.90;;;;;;5072228;28;19977;-75
2021/11/21 07:01:34;;;;;;;;;;;15.50;99.90;;;;;;5072178;28;19920;-72
2021/11/21 07:04:01;;;;;;;;;;;15.50;99.90;;;;;;5072029;28;19909;-68
2021/11/21 07:06:29;;;;;;;;;;;15.50;99.90;;;;;;5072319;28;20343;-67
2021/11/21 07:08:55;;;;;;;;;;;15.50;99.90;;;;;;5072274;28;19916;-69
2021/11/21 07:11:23;;;;;;;;;;;15.50;99.90;;;;;;5072231;28;20015;-71
2021/11/21 07:13:50;;;;;;;;;;;15.50;99.90;;;;;;5071838;28;19970;-76
2021/11/21 07:16:16;;;;;;;;;;;15.40;99.90;;;;;;5072244;28;20317;-73
2021/11/21 07:18:43;;;;;;;;;;;15.40;99.90;;;;;;5072314;28;19962;-76
2021/11/21 07:21:10;;;;;;;;;;;15.40;99.90;;;;;;5072272;28;19908;-69
2021/11/21 07:23:36;;;;;;;;;;;15.40;99.90;;;;;;5072058;28;19916;-73
2021/11/21 07:26:04;;;;;;;;;;;15.50;99.90;;;;;;5071881;28;19962;-74
2021/11/21 07:28:31;;;;;;;;;;;15.50;99.90;;;;;;5070302;28;19912;-72
2021/11/21 07:30:58;;;;;;;;;;;15.50;99.90;;;;;;5067244;28;20291;-78
2021/11/21 07:33:24;;;;;;;;;;;15.60;99.90;;;;;;5051929;28;19960;-74
2021/11/21 07:35:53;;;;;;;;;;;15.60;99.90;;;;;;5051539;28;20386;-71
2021/11/21 07:38:20;;;;;;;;;;;15.60;99.90;;;;;;5051741;28;19909;-71
2021/11/21 07:40:47;;;;;;;;;;;15.60;99.90;;;;;;5052074;28;19948;-73
2021/11/21 07:43:13;;;;;;;;;;;15.60;99.90;;;;;;5051593;28;19908;-73
2021/11/21 07:45:40;;;;;;;;;;;15.70;99.90;;;;;;5052011;28;19909;-75
2021/11/21 07:48:07;;;;;;;;;;;15.80;99.90;;;;;;5051415;28;19913;-76
2021/11/21 07:50:34;;;;;;;;;;;15.90;99.90;;;;;;5051813;28;19999;-68
2021/11/21 07:53:01;;;;;;;;;;;15.90;99.90;;;;;;5051556;28;19952;-71
2021/11/21 07:55:27;;;;;;;;;;;15.90;99.90;;;;;;5051822;28;19920;-77
2021/11/21 07:57:54;;;;;;;;;;;15.90;99.90;;;;;;5051488;28;19948;-74
2021/11/21 08:00:21;;;;;;;;;;;16.00;99.90;;;;;;5051458;28;20386;-69
2021/11/21 08:02:48;;;;;;;;;;;16.10;99.90;;;;;;5055198;28;20010;-72
2021/11/21 08:05:15;;;;;;;;;;;16.10;99.90;;;;;;5055202;28;19990;-76
2021/11/21 08:07:42;;;;;;;;;;;16.10;99.90;;;;;;5055105;28;20804;-76
2021/11/21 08:10:09;;;;;;;;;;;16.10;99.90;;;;;;5055006;28;19949;-75
2021/11/21 08:12:37;;;;;;;;;;;16.10;99.90;;;;;;5054877;28;19912;-74
2021/11/21 08:15:05;;;;;;;;;;;16.10;99.90;;;;;;5055282;28;19916;-74
2021/11/21 08:17:32;;;;;;;;;;;16.10;99.90;;;;;;5055242;28;20485;-76
2021/11/21 08:19:58;;;;;;;;;;;16.10;99.90;;;;;;5054980;28;19915;-75
2021/11/21 08:22:25;;;;;;;;;;;16.10;99.90;;;;;;5055001;28;20421;-75
2021/11/21 08:24:52;;;;;;;;;;;16.10;99.90;;;;;;5055121;28;19913;-74
2021/11/21 08:27:18;;;;;;;;;;;16.10;99.90;;;;;;5055033;28;19908;-70
2021/11/21 08:29:45;;;;;;;;;;;16.20;99.90;;;;;;5054979;28;19913;-74
2021/11/21 08:32:12;;;;;;;;;;;16.20;99.90;;;;;;5054921;28;19913;-72
2021/11/21 08:34:41;;;;;;;;;;;16.30;99.90;;;;;;5054804;28;20294;-75
2021/11/21 08:37:08;;;;;;;;;;;16.30;99.90;;;;;;5054808;28;19909;-75
2021/11/21 08:39:35;;;;;;;;;;;16.40;99.90;;;;;;5071997;28;19999;-76
2021/11/21 08:42:01;;;;;;;;;;;16.40;99.90;;;;;;5074491;28;19916;-71
2021/11/21 08:44:28;;;;;;;;;;;16.40;99.90;;;;;;5074986;28;19912;-74
2021/11/21 08:46:54;;;;;;;;;;;16.50;99.90;;;;;;5074714;28;20372;-75
2021/11/21 08:49:21;;;;;;;;;;;16.50;99.90;;;;;;5074485;28;19966;-75
2021/11/21 08:51:48;;;;;;;;;;;16.50;99.90;;;;;;5074382;28;19909;-74
2021/11/21 08:54:16;;;;;;;;;;;16.60;99.90;;;;;;5074030;28;19916;-73
2021/11/21 08:56:46;;;;;;;;;;;16.60;99.90;;;;;;5074496;28;19946;-76
2021/11/21 08:59:13;;;;;;;;;;;16.60;99.90;;;;;;5074120;28;19913;-75
2021/11/21 09:01:42;;;;;;;;;;;16.60;99.90;;;;;;5074421;28;19920;-72
2021/11/21 09:04:09;;;;;;;;;;;16.50;99.90;;;;;;5074159;28;19908;-74
2021/11/21 09:06:35;;;;;;;;;;;16.60;99.90;;;;;;5074180;28;19912;-75
2021/11/21 09:09:02;;;;;;;;;;;16.60;99.90;;;;;;5074065;28;20152;-70
2021/11/21 09:11:29;;;;;;;;;;;16.60;99.90;;;;;;5073865;28;20270;-75
2021/11/21 09:13:56;;;;;;;;;;;16.60;99.90;;;;;;5072898;28;20018;-75
2021/11/21 09:16:23;;;;;;;;;;;16.60;99.90;;;;;;5074152;28;19916;-76
2021/11/21 09:18:50;;;;;;;;;;;16.50;99.90;;;;;;5073811;28;19908;-72
2021/11/21 09:21:16;;;;;;;;;;;16.50;99.90;;;;;;5073941;28;19930;-75
2021/11/21 09:23:43;;;;;;;;;;;16.50;99.90;;;;;;5073690;28;19909;-72
2021/11/21 09:26:10;;;;;;;;;;;16.50;99.90;;;;;;5073100;28;19916;-75
2021/11/21 09:28:37;;;;;;;;;;;16.40;99.90;;;;;;5073783;28;19944;-74
2021/11/21 09:31:04;;;;;;;;;;;16.40;99.90;;;;;;5073785;28;19916;-72
2021/11/21 09:33:30;;;;;;;;;;;16.40;99.90;;;;;;5073625;28;19920;-75
2021/11/21 09:35:57;;;;;;;;;;;16.40;99.90;;;;;;5073350;28;19920;-71
2021/11/21 09:38:24;;;;;;;;;;;16.40;99.90;;;;;;5073293;28;19908;-71
2021/11/21 09:40:51;;;;;;;;;;;16.50;99.90;;;;;;5072829;28;20278;-71
2021/11/21 09:43:18;;;;;;;;;;;16.50;99.90;;;;;;5072968;28;19915;-74
2021/11/21 09:45:45;;;;;;;;;;;16.50;99.90;;;;;;5073467;28;19916;-75
2021/11/21 09:48:11;;;;;;;;;;;16.50;99.90;;;;;;5073536;28;19909;-75
2021/11/21 09:50:40;;;;;;;;;;;16.50;99.90;;;;;;5073664;28;19916;-74
2021/11/21 09:53:11;;;;;;;;;;;16.50;99.90;;;;;;5073171;28;20390;-76
2021/11/21 09:55:39;;;;;;;;;;;16.50;99.90;;;;;;5073432;28;19938;-74
2021/11/21 09:58:06;;;;;;;;;;;16.50;99.90;;;;;;5088640;28;20039;-76
2021/11/21 10:00:33;;;;;;;;;;;16.60;99.90;;;;;;5072935;28;19924;-76
2021/11/21 10:03:10;;;;;;;;;;;16.50;99.90;;;;;;5073094;28;19908;-75
2021/11/21 10:05:38;;;;;;;;;;;16.50;99.90;;;;;;5072926;28;19997;-75
2021/11/21 10:08:08;;;;;;;;;;;16.50;99.90;;;;;;5071231;28;20282;-73
2021/11/21 10:10:49;;;;;;;;;;;16.50;99.90;;;;;;5071729;28;19916;-73
2021/11/21 10:13:24;;;;;;;;;;;16.50;99.90;;;;;;5072894;28;19916;-74
2021/11/21 10:15:51;;;;;;;;;;;16.40;99.90;;;;;;5072752;28;19971;-68
2021/11/21 10:18:18;;;;;;;;;;;16.40;99.90;;;;;;5072831;28;20371;-70
2021/11/21 10:20:44;;;;;;;;;;;16.50;99.90;;;;;;5073106;28;19908;-71
2021/11/21 10:23:15;;;;;;;;;;;16.60;99.90;;;;;;5072657;28;19915;-71
2021/11/21 10:25:51;;;;;;;;;;;16.50;99.90;;;;;;5072707;28;19978;-70
2021/11/21 10:28:30;;;;;;;;;;;16.60;99.90;;;;;;5072592;28;19908;-70
2021/11/21 10:30:57;;;;;;;;;;;16.60;99.90;;;;;;5072562;28;19995;-70
2021/11/21 10:33:28;;;;;;;;;;;16.60;99.90;;;;;;5072527;28;19948;-71
2021/11/21 10:35:59;;;;;;;;;;;16.60;99.90;;;;;;5072445;28;20318;-70
2021/11/21 10:38:31;;;;;;;;;;;16.60;99.90;;;;;;5072270;28;20366;-68
2021/11/21 10:40:57;;;;;;;;;;;16.40;99.90;;;;;;5072775;28;20325;-76
2021/11/21 10:43:24;;;;;;;;;;;16.20;99.90;;;;;;5072518;28;19952;-74
2021/11/21 10:45:51;;;;;;;;;;;16.10;99.90;;;;;;5072224;28;20355;-70
2021/11/21 10:48:25;;;;;;;;;;;15.90;99.90;;;;;;5072592;28;19909;-73
2021/11/21 10:50:52;;;;;;;;;;;15.90;99.90;;;;;;5072376;28;20246;-69
2021/11/21 10:53:20;;;;;;;;;;;15.90;99.90;;;;;;5072342;28;19923;-68
2021/11/21 10:55:46;;;;;;;;;;;15.70;99.90;;;;;;5072206;28;19908;-68
2021/11/21 10:58:17;;;;;;;;;;;15.70;99.90;;;;;;5072260;28;19908;-69
2021/11/21 11:00:54;;;;;;;;;;;15.70;99.90;;;;;;5072157;28;20016;-74
2021/11/21 11:03:22;;;;;;;;;;;15.80;99.90;;;;;;5072539;28;20347;-71
2021/11/21 11:05:49;;;;;;;;;;;15.80;99.90;;;;;;5070885;28;19909;-69
2021/11/21 11:08:29;;;;;;;;;;;15.60;99.90;;;;;;5071849;28;19916;-78
2021/11/21 11:10:56;;;;;;;;;;;15.60;99.90;;;;;;5072250;28;19909;-78
2021/11/21 11:13:23;;;;;;;;;;;15.60;99.90;;;;;;5087698;28;19920;-76
2021/11/21 11:15:50;;;;;;;;;;;15.50;99.90;;;;;;5071646;28;19909;-68
2021/11/21 11:18:17;;;;;;;;;;;15.40;99.90;;;;;;5071897;28;19947;-75
2021/11/21 11:20:45;;;;;;;;;;;15.40;99.90;;;;;;5072102;28;19958;-70
2021/11/21 11:23:13;;;;;;;;;;;15.50;99.90;;;;;;5071879;28;19932;-74
2021/11/21 11:25:40;;;;;;;;;;;15.50;99.90;;;;;;5071949;28;19930;-70
2021/11/21 11:28:26;;;;;;;;;;;15.50;99.90;;;;;;5071983;28;19928;-70
2021/11/21 11:30:53;;;;;;;;;;;15.50;99.90;;;;;;5071858;28;19916;-70
2021/11/21 11:33:21;;;;;;;;;;;15.50;99.90;;;;;;5071733;28;20379;-71
2021/11/21 11:35:53;;;;;;;;;;;15.60;99.90;;;;;;5072833;28;19913;-77
2021/11/21 11:38:22;;;;;;;;;;;15.70;99.90;;;;;;5076047;28;19954;-71
2021/11/21 11:40:53;;;;;;;;;;;15.70;99.90;;;;;;5075846;28;19912;-68
2021/11/21 11:43:30;;;;;;;;;;;15.70;99.90;;;;;;5075778;28;19908;-69
2021/11/21 11:45:57;;;;;;;;;;;15.70;99.90;;;;;;5075700;28;20382;-69
2021/11/21 11:48:26;;;;;;;;;;;15.70;99.90;;;;;;5075864;28;19908;-77
2021/11/21 11:50:53;;;;;;;;;;;15.80;99.90;;;;;;5074511;28;20358;-75
2021/11/21 11:53:36;;;;;;;;;;;15.80;99.90;;;;;;5075462;28;19916;-77
2021/11/21 11:56:12;;;;;;;;;;;15.80;99.90;;;;;;5075305;28;20420;-76
2021/11/21 11:58:53;;;;;;;;;;;15.80;99.90;;;;;;5075650;28;19950;-76
2021/11/21 12:01:45;;;;;;;;;;;15.90;99.90;;;;;;5090890;28;20279;-77
2021/11/21 12:04:18;;;;;;;;;;;16.00;99.90;;;;;;5059346;28;20357;-77
2021/11/21 12:06:49;;;;;;;;;;;16.00;99.90;;;;;;5073975;28;20270;-76
2021/11/21 12:09:19;;;;;;;;;;;16.00;99.90;;;;;;5075380;28;19909;-75
2021/11/21 12:11:52;;;;;;;;;;;16.00;99.90;;;;;;5075433;28;19909;-73
2021/11/21 12:14:25;;;;;;;;;;;16.10;99.90;;;;;;5075140;28;19923;-76
2021/11/21 12:16:56;;;;;;;;;;;16.10;99.90;;;;;;5075312;28;19908;-74
2021/11/21 12:19:41;;;;;;;;;;;16.10;99.90;;;;;;5075174;28;19908;-76
2021/11/21 12:22:26;;;;;;;;;;;16.10;99.90;;;;;;5074760;28;19908;-75
2021/11/21 12:25:10;;;;;;;;;;;16.20;99.90;;;;;;5075095;28;20275;-71
2021/11/21 12:27:43;;;;;;;;;;;16.20;99.90;;;;;;5075062;28;20023;-67
2021/11/21 12:30:23;;;;;;;;;;;16.20;99.90;;;;;;5074771;28;19909;-76
2021/11/21 12:32:51;;;;;;;;;;;16.30;99.90;;;;;;5074951;28;19913;-76
2021/11/21 12:35:22;;;;;;;;;;;16.30;99.90;;;;;;5075023;28;19991;-76
2021/11/21 12:37:50;;;;;;;;;;;16.30;99.90;;;;;;5074581;28;19915;-76
2021/11/21 12:40:22;;;;;;;;;;;16.30;99.90;;;;;;5075026;28;19909;-75
2021/11/21 12:42:53;;;;;;;;;;;16.40;99.90;;;;;;5074769;28;19916;-76
2021/11/21 12:45:21;;;;;;;;;;;16.40;99.90;;;;;;5074728;28;19955;-75
2021/11/21 12:47:52;;;;;;;;;;;16.40;99.90;;;;;;5074529;28;19915;-71
2021/11/21 12:50:21;;;;;;;;;;;16.40;99.90;;;;;;5074631;28;19916;-67
2021/11/21 12:52:59;;;;;;;;;;;16.40;99.90;;;;;;5074561;28;19948;-68
2021/11/21 12:55:29;;;;;;;;;;;16.40;99.90;;;;;;5074406;28;19913;-67
2021/11/21 12:57:56;;;;;;;;;;;16.50;99.90;;;;;;5074279;28;19908;-67
2021/11/21 13:00:27;;;;;;;;;;;16.50;99.90;;;;;;5074285;28;20322;-67
2021/11/21 13:02:58;;;;;;;;;;;16.50;99.90;;;;;;5074338;28;20262;-66
2021/11/21 13:05:25;;;;;;;;;;;16.50;99.90;;;;;;5074377;28;19908;-67
2021/11/21 13:07:52;;;;;;;;;;;16.50;99.90;;;;;;5074039;28;20338;-68
2021/11/21 13:10:20;;;;;;;;;;;16.50;99.90;;;;;;5074231;28;19915;-67
2021/11/21 13:12:48;;;;;;;;;;;16.50;99.90;;;;;;5074100;28;19912;-69
2021/11/21 13:15:16;;;;;;;;;;;16.50;99.90;;;;;;5074257;28;19908;-67
2021/11/21 13:17:44;;;;;;;;;;;16.40;99.90;;;;;;5074258;28;19916;-67
2021/11/21 13:20:12;;;;;;;;;;;16.40;99.90;;;;;;5073872;28;19913;-67
2021/11/21 13:22:46;;;;;;;;;;;16.40;99.90;;;;;;5073973;28;19992;-69
2021/11/21 13:25:26;;;;;;;;;;;16.30;99.90;;;;;;5074070;28;19994;-67
2021/11/21 13:28:13;;;;;;;;;;;16.40;99.90;;;;;;5073637;28;19912;-71
2021/11/21 13:30:39;;;;;;;;;;;16.30;99.90;;;;;;5073730;28;19913;-68
2021/11/21 13:33:16;;;;;;;;;;;16.30;99.90;;;;;;5073742;28;19938;-74
2021/11/21 13:35:43;;;;;;;;;;;16.30;99.90;;;;;;5073488;28;20370;-67
2021/11/21 13:38:11;;;;;;;;;;;16.40;99.90;;;;;;5073439;28;19912;-69
2021/11/21 13:40:38;;;;;;;;;;;16.50;99.90;;;;;;5073620;28;20007;-67
2021/11/21 13:43:06;;;;;;;;;;;16.60;99.90;;;;;;5073626;28;19908;-66
2021/11/21 13:45:33;;;;;;;;;;;16.70;99.90;;;;;;5073563;28;19912;-68
2021/11/21 13:48:00;;;;;;;;;;;16.80;99.90;;;;;;5073391;28;19962;-67
2021/11/21 13:50:28;;;;;;;;;;;16.80;99.90;;;;;;5072236;28;19915;-69
2021/11/21 13:52:55;;;;;;;;;;;16.80;99.90;;;;;;5073085;28;19917;-66
2021/11/21 13:55:24;;;;;;;;;;;16.80;99.90;;;;;;5073341;28;19909;-68
2021/11/21 13:57:53;;;;;;;;;;;16.80;99.90;;;;;;5088588;28;19917;-70
2021/11/21 14:00:24;;;;;;;;;;;16.80;99.90;;;;;;5073055;28;19920;-69
2021/11/21 14:02:56;;;;;;;;;;;16.70;99.90;;;;;;5073365;28;19948;-74
2021/11/21 14:05:25;;;;;;;;;;;16.60;99.90;;;;;;5073353;28;19913;-71
2021/11/21 14:07:56;;;;;;;;;;;16.60;99.90;;;;;;5073163;28;19916;-68
2021/11/21 14:10:28;;;;;;;;;;;16.50;99.90;;;;;;5073185;28;19935;-71
2021/11/21 14:13:08;;;;;;;;;;;16.50;99.90;;;;;;5073137;28;19945;-69
2021/11/21 14:15:35;;;;;;;;;;;16.50;99.90;;;;;;5072953;28;19908;-72
2021/11/21 14:18:01;;;;;;;;;;;16.50;99.90;;;;;;5072728;28;20347;-70
2021/11/21 14:20:56;;;;;;;;;;;16.40;99.90;;;;;;5072849;28;19912;-68
2021/11/21 14:23:27;;;;;;;;;;;16.40;99.90;;;;;;5073084;28;20282;-68